createdAt,value
2022-10-19T00:01:42.516Z,2.53
2022-10-19T00:08:46.713Z,1.90
2022-10-19T00:15:49.764Z,1.60
2022-10-19T00:22:53.215Z,2.30
2022-10-19T00:29:57.468Z,1.67
2022-10-19T00:37:00.491Z,1.67
2022-10-19T00:44:03.552Z,2.03
2022-10-19T00:51:11.220Z,1.60
2022-10-19T00:58:16.550Z,2.00
2022-10-19T01:05:20.007Z,1.83
2022-10-19T01:12:31.320Z,1.63
2022-10-19T01:19:52.654Z,1.63
2022-10-19T01:27:31.199Z,1.70
2022-10-19T01:34:42.049Z,1.60
2022-10-19T01:42:01.002Z,1.30
2022-10-19T01:49:31.277Z,1.77
2022-10-19T01:56:38.022Z,1.47
2022-10-19T02:03:46.750Z,1.70
2022-10-19T02:10:50.799Z,1.97
2022-10-19T02:18:02.015Z,1.30
2022-10-19T02:25:06.541Z,1.53
2022-10-19T02:32:11.095Z,1.60
2022-10-19T02:39:19.332Z,1.33
2022-10-19T02:46:34.213Z,1.63
2022-10-19T02:53:44.793Z,1.97
2022-10-19T03:00:48.173Z,1.97
2022-10-19T03:07:51.233Z,1.30
2022-10-19T03:14:54.316Z,1.30
2022-10-19T03:22:05.710Z,1.47
2022-10-19T03:29:08.741Z,1.33
2022-10-19T03:36:11.907Z,0.90
2022-10-19T03:43:15.036Z,1.10
2022-10-19T03:50:18.245Z,0.97
2022-10-19T03:57:23.679Z,1.30
2022-10-19T04:04:26.713Z,1.20
2022-10-19T04:11:29.768Z,1.30
2022-10-19T04:18:33.633Z,1.07
2022-10-19T04:25:37.368Z,1.67
2022-10-19T04:32:41.124Z,1.50
2022-10-19T04:39:44.613Z,1.00
2022-10-19T04:46:47.710Z,1.20
2022-10-19T04:53:51.634Z,0.90
2022-10-19T05:00:56.716Z,0.93
2022-10-19T05:08:00.999Z,0.97
2022-10-19T05:15:04.115Z,1.20
2022-10-19T05:22:13.143Z,0.90
2022-10-19T05:29:16.309Z,1.20
2022-10-19T05:36:19.404Z,0.97
2022-10-19T05:43:23.423Z,1.20
2022-10-19T05:50:26.609Z,0.60
2022-10-19T05:57:32.521Z,0.97
2022-10-19T06:04:35.830Z,1.33
2022-10-19T06:11:39.166Z,0.60
2022-10-19T06:18:42.843Z,1.07
2022-10-19T06:25:45.900Z,1.30
2022-10-19T06:32:48.994Z,0.80
2022-10-19T06:39:52.602Z,1.30
2022-10-19T06:46:55.717Z,0.97
2022-10-19T06:53:58.947Z,1.47
2022-10-19T07:01:02.183Z,0.77
2022-10-19T07:08:09.852Z,1.90
2022-10-19T07:15:12.984Z,1.10
2022-10-19T07:22:23.147Z,1.10
2022-10-19T07:29:28.803Z,0.80
2022-10-19T07:36:31.997Z,1.30
2022-10-19T07:43:35.873Z,0.97
2022-10-19T07:50:40.356Z,1.37
2022-10-19T07:57:45.008Z,1.07
2022-10-19T08:05:00.248Z,1.70
2022-10-19T08:12:14.889Z,1.37
2022-10-19T08:19:18.706Z,0.80
2022-10-19T08:26:21.980Z,1.63
2022-10-19T08:33:25.072Z,1.03
2022-10-19T08:40:28.118Z,1.90
2022-10-19T08:48:11.872Z,1.17
2022-10-19T08:55:20.699Z,1.03
2022-10-19T09:02:49.061Z,1.83
2022-10-19T09:09:57.065Z,1.03
2022-10-19T09:17:06.814Z,1.10
2022-10-19T09:24:25.302Z,2.63
2022-10-19T09:31:42.674Z,1.00
2022-10-19T09:38:54.900Z,0.93
2022-10-19T09:45:58.249Z,1.23
2022-10-19T09:53:02.584Z,0.87
2022-10-19T10:00:24.516Z,0.80
2022-10-19T10:07:35.344Z,1.27
2022-10-19T10:14:42.029Z,1.23
2022-10-19T10:22:16.984Z,0.70
2022-10-19T10:29:33.582Z,1.00
2022-10-19T10:36:41.235Z,0.93
2022-10-19T10:43:47.458Z,0.90
2022-10-19T10:51:04.358Z,1.07
2022-10-19T10:58:11.392Z,1.20
2022-10-19T11:05:32.944Z,1.23
2022-10-19T11:12:41.969Z,0.80
2022-10-19T11:20:05.477Z,0.67
2022-10-19T11:27:41.175Z,1.10
2022-10-19T11:34:58.250Z,0.73
2022-10-19T11:42:33.864Z,1.40
2022-10-19T11:50:12.369Z,0.70
2022-10-19T11:57:54.529Z,1.60
2022-10-19T12:05:15.174Z,0.87
2022-10-19T12:13:10.465Z,0.63
2022-10-19T12:20:23.615Z,1.10
2022-10-19T12:27:28.071Z,0.90
2022-10-19T12:35:00.604Z,0.80
2022-10-19T12:42:30.693Z,0.83
2022-10-19T12:49:33.984Z,0.50
2022-10-19T12:56:39.250Z,0.73
2022-10-19T13:03:46.870Z,1.53
2022-10-19T13:11:03.474Z,0.83
2022-10-19T13:18:38.580Z,1.00
2022-10-19T13:25:41.880Z,1.10
2022-10-19T13:32:44.989Z,1.10
2022-10-19T13:39:50.816Z,0.90
2022-10-19T13:47:11.413Z,0.70
2022-10-19T13:54:58.938Z,0.90
2022-10-19T14:02:48.692Z,0.77
2022-10-19T14:10:25.151Z,0.70
2022-10-19T14:17:36.817Z,2.10
2022-10-19T14:24:41.924Z,0.50
2022-10-19T14:31:47.316Z,0.80
2022-10-19T14:38:51.583Z,0.80
2022-10-19T14:45:55.091Z,1.07
2022-10-19T14:53:03.719Z,1.23
2022-10-19T15:00:34.072Z,1.40
2022-10-19T15:07:41.137Z,1.60
2022-10-19T15:14:45.756Z,0.80
2022-10-19T15:21:48.823Z,1.30
2022-10-19T15:28:52.565Z,1.10
2022-10-19T15:35:56.940Z,1.57
2022-10-19T15:43:39.655Z,0.97
2022-10-19T15:50:45.784Z,1.73
2022-10-19T15:57:53.468Z,1.13
2022-10-19T16:04:56.884Z,1.33
2022-10-19T16:12:00.239Z,1.37
2022-10-19T16:19:03.995Z,1.40
2022-10-19T16:26:07.516Z,1.50
2022-10-19T16:33:10.815Z,8.73
2022-10-19T16:40:14.136Z,2.83
2022-10-19T16:47:18.910Z,3.13
2022-10-19T16:54:21.978Z,3.63
2022-10-19T17:01:25.340Z,2.80
2022-10-19T17:08:36.741Z,3.63
2022-10-19T17:15:43.461Z,2.87
2022-10-19T17:22:46.756Z,3.87
2022-10-19T17:29:53.496Z,2.63
2022-10-19T17:36:56.593Z,3.03
2022-10-19T17:44:00.107Z,3.20
2022-10-19T17:51:03.362Z,4.03
2022-10-19T17:58:07.725Z,4.00
2022-10-19T18:05:10.740Z,4.07
2022-10-19T18:12:19.694Z,5.10
2022-10-19T18:19:23.045Z,5.70
2022-10-19T18:26:26.109Z,5.60
2022-10-19T18:33:32.553Z,6.70
2022-10-19T18:40:36.274Z,6.47
2022-10-19T18:47:40.062Z,5.60
2022-10-19T18:54:43.224Z,5.63
2022-10-19T19:01:46.362Z,4.87
2022-10-19T19:08:49.514Z,6.93
2022-10-19T19:15:53.873Z,6.50
2022-10-19T19:22:56.930Z,7.07
2022-10-19T19:30:00.588Z,9.57
2022-10-19T19:37:10.448Z,6.20
2022-10-19T19:44:15.907Z,3.60
2022-10-19T19:51:19.188Z,2.40
2022-10-19T19:58:22.253Z,2.40
2022-10-19T20:05:25.858Z,2.00
2022-10-19T20:12:31.251Z,1.97
2022-10-19T20:19:35.037Z,1.87
2022-10-19T20:26:40.656Z,1.20
2022-10-19T20:33:43.735Z,1.57
2022-10-19T20:40:52.078Z,1.47
2022-10-19T20:47:55.369Z,1.87
2022-10-19T20:54:59.789Z,4.87
2022-10-19T21:02:15.035Z,1.63
2022-10-19T21:09:18.092Z,1.57
2022-10-19T21:16:22.691Z,1.90
2022-10-19T21:23:27.444Z,0.97
2022-10-19T21:30:30.487Z,2.37
2022-10-19T21:37:33.701Z,1.90
2022-10-19T21:44:37.327Z,1.27
2022-10-19T21:51:40.447Z,1.60
2022-10-19T21:58:43.838Z,1.10
2022-10-19T22:05:46.956Z,1.53
2022-10-19T22:12:50.625Z,1.50
2022-10-19T22:19:54.709Z,1.67
2022-10-19T22:26:57.825Z,2.27
2022-10-19T22:34:00.864Z,2.17
2022-10-19T22:41:04.544Z,2.60
2022-10-19T22:48:07.877Z,2.10
2022-10-19T22:55:11.063Z,2.03
2022-10-19T23:02:16.643Z,1.73
2022-10-19T23:09:19.714Z,2.17
2022-10-19T23:16:23.879Z,2.10
2022-10-19T23:23:27.146Z,1.43
2022-10-19T23:30:30.788Z,2.20
2022-10-19T23:37:34.236Z,2.07
2022-10-19T23:44:37.443Z,1.70
2022-10-19T23:51:40.470Z,1.87
2022-10-19T23:58:43.504Z,1.77
